Terminal Aerodrome Forecast
Issued by NWS Boise, ID

Home | Current Version | Previous Version | Text Only | Print | Product List | Glossary On
Versions: 1 2 3 4 5 6 7 8 9 10 11 12 13 14 15
000
FTUS45 KBOI 202334
TAFBNO
TAF
KBNO 202334Z 2100/2124 24015G25KT P6SM VCSH SCT070
     FM210300 25010KT P6SM SCT070
     FM211200 VRB05KT 4SM -SN OVC025
     FM211900 VRB06KT P6SM -RA OVC040=

USA.gov is the U.S. government's official web portal to all federal, state and local government web resources and services.